createdAt,value
2022-11-20T00:01:45.063Z,5.73
2022-11-20T00:06:47.729Z,4.83
2022-11-20T00:11:49.603Z,3.87
2022-11-20T00:16:51.097Z,6.20
2022-11-20T00:21:54.732Z,5.60
2022-11-20T00:26:56.255Z,2.07
2022-11-20T00:31:57.683Z,5.67
2022-11-20T00:36:59.338Z,5.73
2022-11-20T00:42:00.823Z,2.73
2022-11-20T00:47:02.359Z,9.10
2022-11-20T00:52:03.863Z,4.83
2022-11-20T00:57:05.655Z,6.17
2022-11-20T01:02:07.099Z,3.43
2022-11-20T01:07:08.617Z,4.77
2022-11-20T01:12:10.214Z,3.83
2022-11-20T01:17:11.689Z,4.27
2022-11-20T01:22:14.221Z,3.13
2022-11-20T01:27:15.667Z,6.00
2022-11-20T01:32:17.490Z,3.37
2022-11-20T01:37:19.020Z,4.27
2022-11-20T01:42:38.906Z,5.20
2022-11-20T01:47:45.259Z,3.33
2022-11-20T01:52:51.753Z,5.70
2022-11-20T01:57:53.820Z,4.77
2022-11-20T02:03:01.373Z,4.20
2022-11-20T02:08:05.365Z,3.47
2022-11-20T02:13:25.774Z,2.85
2022-11-20T02:18:27.658Z,9.33
2022-11-20T02:23:40.842Z,6.17
2022-11-20T02:28:42.611Z,4.10
2022-11-20T02:33:44.118Z,3.73
2022-11-20T02:38:45.876Z,2.70
2022-11-20T02:43:47.428Z,4.17
2022-11-20T02:48:49.014Z,3.77
2022-11-20T02:53:50.981Z,4.03
2022-11-20T02:58:52.564Z,3.97
2022-11-20T03:03:55.492Z,4.73
2022-11-20T03:08:57.027Z,3.73
2022-11-20T03:13:58.592Z,4.30
2022-11-20T03:19:00.413Z,4.80
2022-11-20T03:24:02.673Z,4.63
2022-11-20T03:29:05.280Z,3.20
2022-11-20T03:34:07.881Z,5.03
2022-11-20T03:39:09.687Z,3.47
2022-11-20T03:44:12.662Z,2.83
2022-11-20T03:49:14.145Z,4.07
2022-11-20T03:54:15.592Z,4.70
2022-11-20T03:59:17.441Z,5.83
2022-11-20T04:04:18.991Z,4.17
2022-11-20T04:09:20.706Z,4.80
2022-11-20T04:14:22.525Z,3.57
2022-11-20T04:19:24.343Z,4.73
2022-11-20T04:24:27.005Z,5.73
2022-11-20T04:29:28.475Z,5.20
2022-11-20T04:34:30.004Z,7.67
2022-11-20T04:39:31.473Z,11.20
2022-11-20T04:44:32.930Z,4.70
2022-11-20T04:49:34.934Z,4.53
2022-11-20T04:54:36.405Z,3.97
2022-11-20T04:59:37.881Z,4.43
2022-11-20T05:04:39.461Z,3.23
2022-11-20T05:09:40.965Z,3.60
2022-11-20T05:14:42.447Z,5.77
2022-11-20T05:19:43.906Z,4.13
2022-11-20T05:24:45.430Z,3.90
2022-11-20T05:29:46.887Z,4.77
2022-11-20T05:34:48.296Z,3.77
2022-11-20T05:39:50.394Z,4.13
2022-11-20T05:44:51.840Z,3.93
2022-11-20T05:49:53.390Z,4.63
2022-11-20T05:54:54.882Z,4.83
2022-11-20T05:59:56.492Z,3.50
2022-11-20T06:04:57.973Z,4.20
2022-11-20T06:09:59.402Z,4.93
2022-11-20T06:15:01.951Z,5.33
2022-11-20T06:20:03.739Z,4.57
2022-11-20T06:25:05.320Z,4.20
2022-11-20T06:30:07.399Z,4.20
2022-11-20T06:35:09.219Z,5.80
2022-11-20T06:40:11.272Z,6.10
2022-11-20T06:45:12.820Z,4.97
2022-11-20T06:50:14.626Z,4.97
2022-11-20T06:55:16.162Z,4.37
2022-11-20T07:00:17.763Z,5.80
2022-11-20T07:05:19.423Z,6.53
2022-11-20T07:10:20.907Z,7.83
2022-11-20T07:15:24.347Z,7.13
2022-11-20T07:20:25.945Z,6.20
2022-11-20T07:25:29.002Z,5.50
2022-11-20T07:30:31.115Z,5.80
2022-11-20T07:35:32.624Z,7.33
2022-11-20T07:40:34.044Z,6.00
2022-11-20T07:45:35.619Z,7.97
2022-11-20T07:50:37.046Z,8.40
2022-11-20T07:55:38.534Z,9.37
2022-11-20T08:00:39.985Z,7.30
2022-11-20T08:05:41.576Z,8.53
2022-11-20T08:10:43.036Z,7.97
2022-11-20T08:15:50.664Z,17.53
2022-11-20T08:20:52.114Z,17.90
2022-11-20T08:25:53.625Z,10.23
2022-11-20T08:31:00.105Z,11.17
2022-11-20T08:36:03.717Z,9.37
2022-11-20T08:41:24.434Z,9.80
2022-11-20T08:46:28.007Z,11.03
2022-11-20T08:51:29.481Z,12.77
2022-11-20T08:56:31.212Z,7.97
2022-11-20T09:01:32.743Z,7.07
2022-11-20T09:06:34.189Z,11.63
2022-11-20T09:11:36.699Z,9.23
2022-11-20T09:16:38.182Z,6.73
2022-11-20T09:21:39.651Z,6.43
2022-11-20T09:26:41.128Z,8.33
2022-11-20T09:31:42.689Z,12.60
2022-11-20T09:36:44.154Z,9.60
2022-11-20T09:42:10.151Z,9.57
2022-11-20T09:47:14.498Z,6.83
2022-11-20T09:52:23.141Z,9.07
2022-11-20T09:57:37.336Z,4.00
2022-11-20T10:03:19.715Z,4.45
2022-11-20T10:08:30.323Z,5.90
2022-11-20T10:13:40.884Z,6.32
2022-11-20T10:18:45.151Z,4.20
2022-11-20T10:24:16.088Z,5.88
2022-11-20T10:29:20.185Z,3.63
2022-11-20T10:34:32.677Z,5.32
2022-11-20T10:39:43.299Z,3.92
2022-11-20T10:45:06.325Z,4.60
2022-11-20T10:50:20.598Z,4.20
2022-11-20T10:55:45.702Z,3.10
2022-11-20T11:00:47.210Z,3.25
2022-11-20T11:05:57.646Z,3.22
2022-11-20T11:11:04.014Z,2.30
2022-11-20T11:16:05.568Z,1.80
2022-11-20T11:21:07.074Z,1.35
2022-11-20T11:26:21.242Z,2.33
2022-11-20T11:31:27.971Z,1.45
2022-11-20T11:36:29.512Z,1.55
2022-11-20T11:41:36.615Z,1.33
2022-11-20T11:46:38.735Z,2.35
2022-11-20T11:52:06.664Z,2.33
2022-11-20T11:57:19.700Z,2.35
2022-11-20T12:02:33.245Z,4.13
2022-11-20T12:07:46.925Z,2.40
2022-11-20T12:12:55.630Z,2.72
2022-11-20T12:17:57.333Z,2.33
2022-11-20T12:22:58.755Z,6.15
2022-11-20T12:28:32.650Z,2.97
2022-11-20T12:33:41.493Z,3.70
2022-11-20T12:39:07.185Z,1.40
2022-11-20T12:44:33.557Z,0.98
2022-11-20T12:49:37.762Z,2.92
2022-11-20T12:54:45.544Z,6.28
2022-11-20T13:00:05.092Z,2.80
2022-11-20T13:05:31.274Z,5.68
2022-11-20T13:10:37.541Z,2.40
2022-11-20T13:15:54.797Z,11.13
2022-11-20T13:20:56.515Z,7.55
2022-11-20T13:26:25.198Z,2.30
2022-11-20T13:31:33.291Z,5.55
2022-11-20T13:36:36.038Z,4.60
2022-11-20T13:41:41.942Z,2.65
2022-11-20T13:46:47.974Z,2.63
2022-11-20T13:51:52.602Z,2.22
2022-11-20T13:57:14.887Z,2.40
2022-11-20T14:02:20.625Z,1.90
2022-11-20T14:07:26.744Z,5.40
2022-11-20T14:12:33.964Z,6.32
2022-11-20T14:17:37.541Z,6.10
2022-11-20T14:22:39.098Z,4.77
2022-11-20T14:27:42.856Z,3.92
2022-11-20T14:32:46.127Z,2.73
2022-11-20T14:37:48.406Z,5.93
2022-11-20T14:42:49.892Z,3.35
2022-11-20T14:47:54.294Z,5.40
2022-11-20T14:52:56.873Z,7.70
2022-11-20T14:58:01.545Z,9.73
2022-11-20T15:08:08.060Z,7.63
2022-11-20T15:13:16.457Z,7.20
2022-11-20T15:18:21.553Z,8.70
2022-11-20T15:23:23.429Z,15.57
2022-11-20T15:28:38.004Z,13.50
2022-11-20T15:38:40.962Z,9.57
2022-11-20T15:43:42.485Z,9.27
2022-11-20T15:48:48.789Z,9.13
2022-11-20T15:53:50.388Z,6.87
2022-11-20T15:58:51.968Z,14.10
2022-11-20T16:03:53.411Z,14.00
2022-11-20T16:08:54.995Z,15.23
2022-11-20T16:14:15.149Z,19.20
2022-11-20T16:19:16.754Z,14.57
2022-11-20T16:24:18.337Z,10.70
2022-11-20T16:29:19.869Z,11.13
2022-11-20T16:34:21.292Z,10.47
2022-11-20T16:39:24.109Z,12.23
2022-11-20T16:44:26.302Z,10.50
2022-11-20T16:49:27.904Z,9.40
2022-11-20T16:54:29.416Z,9.47
2022-11-20T16:59:30.872Z,14.77
2022-11-20T17:04:32.377Z,20.20
2022-11-20T17:09:34.732Z,20.53
2022-11-20T17:14:36.264Z,15.50
2022-11-20T17:19:37.944Z,10.97
2022-11-20T17:24:39.448Z,9.43
2022-11-20T17:29:42.289Z,11.10
2022-11-20T17:34:44.032Z,12.73
2022-11-20T17:39:45.636Z,16.90
2022-11-20T17:44:47.415Z,23.37
2022-11-20T17:49:48.890Z,16.77
2022-11-20T17:54:52.548Z,18.70
2022-11-20T17:59:54.219Z,18.03
2022-11-20T18:04:55.851Z,12.03
2022-11-20T18:09:57.467Z,12.80
2022-11-20T18:14:59.162Z,19.60
2022-11-20T18:20:27.752Z,23.87
2022-11-20T18:25:22.140Z,32.47
2022-11-20T18:30:23.712Z,26.50
2022-11-20T18:35:26.682Z,23.00
2022-11-20T18:40:28.170Z,25.80
2022-11-20T18:45:30.393Z,25.30
2022-11-20T18:50:31.837Z,21.80
2022-11-20T18:55:33.280Z,24.50
2022-11-20T19:00:34.770Z,24.67
2022-11-20T19:05:36.593Z,23.43
2022-11-20T19:10:38.121Z,25.27
2022-11-20T19:15:40.321Z,20.13
2022-11-20T19:20:41.784Z,17.90
2022-11-20T19:25:43.717Z,16.63
2022-11-20T19:30:45.281Z,17.93
2022-11-20T19:35:46.765Z,14.73
2022-11-20T19:40:48.271Z,15.40
2022-11-20T19:45:49.880Z,16.80
2022-11-20T19:50:51.496Z,15.83
2022-11-20T19:56:00.280Z,16.63
2022-11-20T20:01:19.372Z,13.77
2022-11-20T20:06:26.151Z,14.40
2022-11-20T20:11:29.888Z,14.57
2022-11-20T20:16:31.775Z,20.93
2022-11-20T20:21:35.189Z,17.87
2022-11-20T20:26:37.101Z,19.00
2022-11-20T20:31:39.880Z,21.40
2022-11-20T20:36:41.387Z,21.17
2022-11-20T20:41:42.904Z,25.60
2022-11-20T20:46:44.349Z,22.43
2022-11-20T20:51:45.898Z,28.57
2022-11-20T20:56:47.409Z,31.97
2022-11-20T21:01:49.076Z,29.00
2022-11-20T21:06:50.557Z,23.23
2022-11-20T21:11:52.034Z,24.83
2022-11-20T21:16:53.509Z,20.27
2022-11-20T21:22:00.795Z,23.50
2022-11-20T21:27:04.999Z,18.50
2022-11-20T21:32:06.456Z,17.85
2022-11-20T21:37:07.896Z,11.73
2022-11-20T21:42:09.415Z,9.90
2022-11-20T21:47:12.020Z,8.03
2022-11-20T21:52:13.519Z,7.90
2022-11-20T21:57:15.091Z,11.10
2022-11-20T22:02:16.581Z,10.50
2022-11-20T22:07:18.314Z,10.13
2022-11-20T22:12:19.783Z,15.53
2022-11-20T22:17:41.233Z,11.83
2022-11-20T22:22:42.738Z,10.80
2022-11-20T22:27:46.114Z,11.70
2022-11-20T22:32:47.669Z,12.57
2022-11-20T22:37:49.574Z,9.77
2022-11-20T22:42:51.042Z,8.77
2022-11-20T22:47:52.530Z,11.00
2022-11-20T22:52:54.034Z,10.63
2022-11-20T22:57:56.502Z,9.57
2022-11-20T23:02:57.941Z,9.67
2022-11-20T23:07:59.418Z,10.20
2022-11-20T23:13:00.876Z,9.53
2022-11-20T23:18:02.397Z,12.03
2022-11-20T23:23:03.809Z,13.13
2022-11-20T23:28:05.249Z,10.93
2022-11-20T23:33:06.749Z,12.57
2022-11-20T23:38:08.316Z,12.47
2022-11-20T23:43:15.427Z,12.27
2022-11-20T23:48:17.397Z,10.90
2022-11-20T23:53:19.467Z,10.97
2022-11-20T23:58:22.006Z,11.13
